sensor_id;sensor_type;location;lat;lon;timestamp;pressure;altitude;pressure_sealevel;temperature;humidity
70815;BME280;58428;49.478;10.986;2023-02-23T00:03:36;98058.41;;;10.51;100.00
70815;BME280;58428;49.478;10.986;2023-02-23T00:06:02;98055.59;;;10.47;100.00
70815;BME280;58428;49.478;10.986;2023-02-23T00:08:27;98053.53;;;10.44;100.00
70815;BME280;58428;49.478;10.986;2023-02-23T00:10:54;98059.28;;;10.43;100.00
70815;BME280;58428;49.478;10.986;2023-02-23T00:13:22;98059.72;;;10.45;100.00
70815;BME280;58428;49.478;10.986;2023-02-23T00:15:48;98055.31;;;10.40;100.00
70815;BME280;58428;49.478;10.986;2023-02-23T00:18:14;98046.88;;;10.42;100.00
70815;BME280;58428;49.478;10.986;2023-02-23T00:20:41;98047.03;;;10.45;100.00
70815;BME280;58428;49.478;10.986;2023-02-23T00:23:12;98054.31;;;10.45;100.00
70815;BME280;58428;49.478;10.986;2023-02-23T00:25:39;98048.22;;;10.36;100.00
70815;BME280;58428;49.478;10.986;2023-02-23T00:28:06;98042.34;;;10.34;100.00
70815;BME280;58428;49.478;10.986;2023-02-23T00:30:33;98053.31;;;10.37;100.00
70815;BME280;58428;49.478;10.986;2023-02-23T00:32:59;98046.41;;;10.28;100.00
70815;BME280;58428;49.478;10.986;2023-02-23T00:35:27;98042.31;;;10.22;100.00
70815;BME280;58428;49.478;10.986;2023-02-23T00:37:52;98047.44;;;10.15;100.00
70815;BME280;58428;49.478;10.986;2023-02-23T00:40:18;98052.59;;;10.08;100.00
70815;BME280;58428;49.478;10.986;2023-02-23T00:42:46;98050.94;;;10.16;100.00
70815;BME280;58428;49.478;10.986;2023-02-23T00:45:12;98047.25;;;10.20;100.00
70815;BME280;58428;49.478;10.986;2023-02-23T00:47:43;98056.16;;;10.21;100.00
70815;BME280;58428;49.478;10.986;2023-02-23T00:50:11;98059.88;;;10.16;100.00
70815;BME280;58428;49.478;10.986;2023-02-23T00:52:41;98062.75;;;10.11;100.00
70815;BME280;58428;49.478;10.986;2023-02-23T00:55:11;98059.41;;;10.14;100.00
70815;BME280;58428;49.478;10.986;2023-02-23T00:57:37;98057.03;;;10.13;100.00
70815;BME280;58428;49.478;10.986;2023-02-23T01:00:04;98057.75;;;10.01;100.00
70815;BME280;58428;49.478;10.986;2023-02-23T01:02:43;98057.84;;;9.93;100.00
70815;BME280;58428;49.478;10.986;2023-02-23T01:05:11;98057.63;;;9.98;100.00
70815;BME280;58428;49.478;10.986;2023-02-23T01:07:40;98059.69;;;10.01;100.00
70815;BME280;58428;49.478;10.986;2023-02-23T01:10:07;98055.13;;;9.93;100.00
70815;BME280;58428;49.478;10.986;2023-02-23T01:12:50;98059.53;;;9.97;100.00
70815;BME280;58428;49.478;10.986;2023-02-23T01:15:17;98063.94;;;10.02;100.00
70815;BME280;58428;49.478;10.986;2023-02-23T01:17:48;98062.84;;;10.03;100.00
70815;BME280;58428;49.478;10.986;2023-02-23T01:20:15;98065.53;;;10.03;100.00
70815;BME280;58428;49.478;10.986;2023-02-23T01:22:50;98062.38;;;10.01;100.00
70815;BME280;58428;49.478;10.986;2023-02-23T01:25:16;98063.47;;;10.00;100.00
70815;BME280;58428;49.478;10.986;2023-02-23T01:27:43;98058.06;;;10.00;100.00
70815;BME280;58428;49.478;10.986;2023-02-23T01:30:12;98060.53;;;9.93;100.00
70815;BME280;58428;49.478;10.986;2023-02-23T01:32:39;98062.78;;;9.91;100.00
70815;BME280;58428;49.478;10.986;2023-02-23T01:35:08;98059.59;;;9.89;100.00
70815;BME280;58428;49.478;10.986;2023-02-23T01:37:36;98063.06;;;9.90;100.00
70815;BME280;58428;49.478;10.986;2023-02-23T01:40:06;98057.66;;;9.90;100.00
70815;BME280;58428;49.478;10.986;2023-02-23T01:42:37;98065.78;;;9.90;100.00
70815;BME280;58428;49.478;10.986;2023-02-23T01:48:13;98048.50;;;9.82;100.00
70815;BME280;58428;49.478;10.986;2023-02-23T01:50:57;98055.00;;;9.81;100.00
70815;BME280;58428;49.478;10.986;2023-02-23T01:53:30;98049.03;;;9.76;100.00
70815;BME280;58428;49.478;10.986;2023-02-23T01:56:01;98051.91;;;9.71;100.00
70815;BME280;58428;49.478;10.986;2023-02-23T01:58:29;98048.91;;;9.72;100.00
70815;BME280;58428;49.478;10.986;2023-02-23T02:00:58;98052.84;;;9.75;100.00
70815;BME280;58428;49.478;10.986;2023-02-23T02:03:33;98052.59;;;9.68;100.00
70815;BME280;58428;49.478;10.986;2023-02-23T02:06:00;98048.69;;;9.57;100.00
70815;BME280;58428;49.478;10.986;2023-02-23T02:08:28;98050.75;;;9.60;100.00
70815;BME280;58428;49.478;10.986;2023-02-23T02:10:59;98052.00;;;9.62;100.00
70815;BME280;58428;49.478;10.986;2023-02-23T02:13:36;98054.69;;;9.62;100.00
70815;BME280;58428;49.478;10.986;2023-02-23T02:20:05;98049.44;;;9.66;100.00
70815;BME280;58428;49.478;10.986;2023-02-23T02:26:20;98047.19;;;9.68;100.00
70815;BME280;58428;49.478;10.986;2023-02-23T02:41:08;98039.19;;;9.51;100.00
70815;BME280;58428;49.478;10.986;2023-02-23T02:44:04;98038.41;;;9.51;100.00
70815;BME280;58428;49.478;10.986;2023-02-23T02:47:11;98035.41;;;9.44;100.00
70815;BME280;58428;49.478;10.986;2023-02-23T02:50:26;98032.78;;;9.35;100.00
70815;BME280;58428;49.478;10.986;2023-02-23T02:52:44;98029.78;;;9.28;100.00
70815;BME280;58428;49.478;10.986;2023-02-23T02:55:19;98033.75;;;9.31;100.00
70815;BME280;58428;49.478;10.986;2023-02-23T02:57:55;98034.56;;;9.31;100.00
70815;BME280;58428;49.478;10.986;2023-02-23T03:00:48;98041.25;;;9.25;100.00
70815;BME280;58428;49.478;10.986;2023-02-23T03:03:43;98041.13;;;9.22;100.00
70815;BME280;58428;49.478;10.986;2023-02-23T03:06:57;98045.44;;;9.15;100.00
70815;BME280;58428;49.478;10.986;2023-02-23T03:12:39;98040.41;;;9.05;100.00
70815;BME280;58428;49.478;10.986;2023-02-23T03:21:42;98044.66;;;9.06;100.00
70815;BME280;58428;49.478;10.986;2023-02-23T03:24:41;98043.41;;;9.03;100.00
70815;BME280;58428;49.478;10.986;2023-02-23T03:34:14;98052.75;;;9.06;100.00
70815;BME280;58428;49.478;10.986;2023-02-23T03:37:30;98053.44;;;9.03;100.00
70815;BME280;58428;49.478;10.986;2023-02-23T03:40:44;98053.00;;;8.92;100.00
70815;BME280;58428;49.478;10.986;2023-02-23T03:43:40;98053.31;;;8.91;100.00
70815;BME280;58428;49.478;10.986;2023-02-23T03:46:29;98048.56;;;8.88;100.00
70815;BME280;58428;49.478;10.986;2023-02-23T03:49:15;98057.63;;;8.83;100.00
70815;BME280;58428;49.478;10.986;2023-02-23T03:52:10;98058.72;;;8.82;100.00
70815;BME280;58428;49.478;10.986;2023-02-23T03:55:00;98059.25;;;8.76;100.00
70815;BME280;58428;49.478;10.986;2023-02-23T03:57:59;98051.34;;;8.71;100.00
70815;BME280;58428;49.478;10.986;2023-02-23T04:00:49;98051.66;;;8.70;100.00
70815;BME280;58428;49.478;10.986;2023-02-23T04:03:42;98054.03;;;8.71;100.00
70815;BME280;58428;49.478;10.986;2023-02-23T04:06:37;98050.06;;;8.69;100.00
70815;BME280;58428;49.478;10.986;2023-02-23T04:09:29;98052.94;;;8.64;100.00
70815;BME280;58428;49.478;10.986;2023-02-23T04:21:26;98055.16;;;8.62;100.00
70815;BME280;58428;49.478;10.986;2023-02-23T04:23:57;98062.31;;;8.58;100.00
70815;BME280;58428;49.478;10.986;2023-02-23T04:26:27;98056.78;;;8.54;100.00
70815;BME280;58428;49.478;10.986;2023-02-23T04:29:11;98055.34;;;8.57;100.00
70815;BME280;58428;49.478;10.986;2023-02-23T04:31:38;98060.09;;;8.51;100.00
70815;BME280;58428;49.478;10.986;2023-02-23T04:34:26;98057.75;;;8.50;100.00
70815;BME280;58428;49.478;10.986;2023-02-23T04:37:16;98062.19;;;8.46;100.00
70815;BME280;58428;49.478;10.986;2023-02-23T04:39:53;98058.88;;;8.41;100.00
70815;BME280;58428;49.478;10.986;2023-02-23T04:42:25;98059.50;;;8.38;100.00
70815;BME280;58428;49.478;10.986;2023-02-23T04:44:54;98065.53;;;8.35;100.00
70815;BME280;58428;49.478;10.986;2023-02-23T04:47:28;98063.94;;;8.34;100.00
70815;BME280;58428;49.478;10.986;2023-02-23T04:49:57;98062.53;;;8.36;100.00
70815;BME280;58428;49.478;10.986;2023-02-23T04:52:23;98071.25;;;8.33;100.00
70815;BME280;58428;49.478;10.986;2023-02-23T04:55:06;98067.75;;;8.33;100.00
70815;BME280;58428;49.478;10.986;2023-02-23T04:57:36;98065.84;;;8.33;100.00
70815;BME280;58428;49.478;10.986;2023-02-23T05:00:03;98066.00;;;8.28;100.00
70815;BME280;58428;49.478;10.986;2023-02-23T05:02:32;98065.53;;;8.26;100.00
70815;BME280;58428;49.478;10.986;2023-02-23T05:05:19;98066.97;;;8.24;100.00
70815;BME280;58428;49.478;10.986;2023-02-23T05:07:49;98069.66;;;8.24;100.00
70815;BME280;58428;49.478;10.986;2023-02-23T05:10:28;98063.34;;;8.20;100.00
70815;BME280;58428;49.478;10.986;2023-02-23T05:12:57;98073.50;;;8.23;100.00
70815;BME280;58428;49.478;10.986;2023-02-23T05:16:06;98071.75;;;8.27;100.00
70815;BME280;58428;49.478;10.986;2023-02-23T05:19:00;98067.16;;;8.19;100.00
70815;BME280;58428;49.478;10.986;2023-02-23T05:21:34;98065.38;;;8.14;100.00
70815;BME280;58428;49.478;10.986;2023-02-23T05:24:13;98062.56;;;8.11;100.00
70815;BME280;58428;49.478;10.986;2023-02-23T05:27:00;98067.63;;;8.12;100.00
70815;BME280;58428;49.478;10.986;2023-02-23T05:29:26;98067.00;;;8.15;100.00
70815;BME280;58428;49.478;10.986;2023-02-23T05:32:01;98063.16;;;8.16;100.00
70815;BME280;58428;49.478;10.986;2023-02-23T05:34:27;98057.94;;;8.20;100.00
70815;BME280;58428;49.478;10.986;2023-02-23T05:37:08;98059.84;;;8.19;100.00
70815;BME280;58428;49.478;10.986;2023-02-23T05:39:37;98069.34;;;8.25;100.00
70815;BME280;58428;49.478;10.986;2023-02-23T05:42:06;98072.06;;;8.25;100.00
70815;BME280;58428;49.478;10.986;2023-02-23T05:44:32;98065.22;;;8.28;100.00
70815;BME280;58428;49.478;10.986;2023-02-23T05:47:01;98070.00;;;8.31;100.00
70815;BME280;58428;49.478;10.986;2023-02-23T05:49:30;98072.19;;;8.37;100.00
70815;BME280;58428;49.478;10.986;2023-02-23T05:52:05;98071.41;;;8.37;100.00
70815;BME280;58428;49.478;10.986;2023-02-23T05:54:35;98076.13;;;8.40;100.00
70815;BME280;58428;49.478;10.986;2023-02-23T05:57:03;98073.91;;;8.42;100.00
70815;BME280;58428;49.478;10.986;2023-02-23T05:59:28;98067.59;;;8.46;100.00
70815;BME280;58428;49.478;10.986;2023-02-23T06:02:01;98069.34;;;8.42;100.00
70815;BME280;58428;49.478;10.986;2023-02-23T06:04:35;98073.91;;;8.42;100.00
70815;BME280;58428;49.478;10.986;2023-02-23T06:07:04;98071.56;;;8.40;100.00
70815;BME280;58428;49.478;10.986;2023-02-23T06:09:40;98078.53;;;8.41;100.00
70815;BME280;58428;49.478;10.986;2023-02-23T06:12:05;98080.72;;;8.47;100.00
70815;BME280;58428;49.478;10.986;2023-02-23T06:14:38;98078.66;;;8.53;100.00
70815;BME280;58428;49.478;10.986;2023-02-23T06:17:05;98082.94;;;8.54;100.00
70815;BME280;58428;49.478;10.986;2023-02-23T06:19:38;98080.88;;;8.51;100.00
70815;BME280;58428;49.478;10.986;2023-02-23T06:22:08;98086.59;;;8.49;100.00
70815;BME280;58428;49.478;10.986;2023-02-23T06:24:46;98097.84;;;8.51;100.00
70815;BME280;58428;49.478;10.986;2023-02-23T06:27:18;98090.53;;;8.60;100.00
70815;BME280;58428;49.478;10.986;2023-02-23T06:29:51;98097.19;;;8.63;100.00
70815;BME280;58428;49.478;10.986;2023-02-23T06:32:20;98094.97;;;8.65;100.00
70815;BME280;58428;49.478;10.986;2023-02-23T06:34:55;98100.03;;;8.66;100.00
70815;BME280;58428;49.478;10.986;2023-02-23T06:37:28;98097.03;;;8.68;100.00
70815;BME280;58428;49.478;10.986;2023-02-23T06:40:00;98105.25;;;8.80;100.00
70815;BME280;58428;49.478;10.986;2023-02-23T06:42:43;98113.94;;;8.93;100.00
70815;BME280;58428;49.478;10.986;2023-02-23T06:45:10;98107.91;;;8.88;100.00
70815;BME280;58428;49.478;10.986;2023-02-23T06:47:41;98109.03;;;8.87;100.00
70815;BME280;58428;49.478;10.986;2023-02-23T06:50:20;98110.59;;;8.88;100.00
70815;BME280;58428;49.478;10.986;2023-02-23T06:52:54;98113.47;;;8.91;100.00
70815;BME280;58428;49.478;10.986;2023-02-23T06:58:11;98118.50;;;9.01;100.00
70815;BME280;58428;49.478;10.986;2023-02-23T07:00:58;98123.22;;;9.13;100.00
70815;BME280;58428;49.478;10.986;2023-02-23T07:03:27;98119.72;;;9.20;100.00
70815;BME280;58428;49.478;10.986;2023-02-23T07:06:09;98124.75;;;9.30;100.00
70815;BME280;58428;49.478;10.986;2023-02-23T07:08:35;98126.50;;;9.35;100.00
70815;BME280;58428;49.478;10.986;2023-02-23T07:11:14;98132.22;;;9.33;100.00
70815;BME280;58428;49.478;10.986;2023-02-23T07:13:59;98127.34;;;9.18;100.00
70815;BME280;58428;49.478;10.986;2023-02-23T07:16:34;98130.81;;;9.19;100.00
70815;BME280;58428;49.478;10.986;2023-02-23T07:19:02;98128.88;;;9.28;100.00
70815;BME280;58428;49.478;10.986;2023-02-23T07:21:31;98136.63;;;9.38;100.00
70815;BME280;58428;49.478;10.986;2023-02-23T07:24:04;98133.88;;;9.46;100.00
70815;BME280;58428;49.478;10.986;2023-02-23T07:26:31;98131.63;;;9.56;100.00
70815;BME280;58428;49.478;10.986;2023-02-23T07:29:06;98140.34;;;9.62;100.00
70815;BME280;58428;49.478;10.986;2023-02-23T07:31:38;98139.34;;;9.66;100.00
70815;BME280;58428;49.478;10.986;2023-02-23T07:34:14;98140.88;;;9.76;100.00
70815;BME280;58428;49.478;10.986;2023-02-23T07:36:41;98139.22;;;9.83;100.00
70815;BME280;58428;49.478;10.986;2023-02-23T07:39:11;98141.75;;;9.88;100.00
70815;BME280;58428;49.478;10.986;2023-02-23T07:41:40;98137.63;;;9.91;100.00
70815;BME280;58428;49.478;10.986;2023-02-23T07:44:10;98144.44;;;9.88;100.00
70815;BME280;58428;49.478;10.986;2023-02-23T07:46:36;98145.72;;;9.91;100.00
70815;BME280;58428;49.478;10.986;2023-02-23T07:49:11;98145.22;;;9.89;100.00
70815;BME280;58428;49.478;10.986;2023-02-23T07:51:38;98143.84;;;9.83;100.00
70815;BME280;58428;49.478;10.986;2023-02-23T07:54:11;98145.28;;;9.80;100.00
70815;BME280;58428;49.478;10.986;2023-02-23T07:56:43;98138.09;;;9.92;100.00
70815;BME280;58428;49.478;10.986;2023-02-23T07:59:18;98142.59;;;10.09;100.00
70815;BME280;58428;49.478;10.986;2023-02-23T08:01:56;98138.38;;;10.20;100.00
70815;BME280;58428;49.478;10.986;2023-02-23T08:04:28;98140.03;;;10.32;100.00
70815;BME280;58428;49.478;10.986;2023-02-23T08:07:20;98146.94;;;10.42;100.00
70815;BME280;58428;49.478;10.986;2023-02-23T08:10:05;98137.75;;;10.55;100.00
70815;BME280;58428;49.478;10.986;2023-02-23T08:12:37;98141.50;;;10.62;100.00
70815;BME280;58428;49.478;10.986;2023-02-23T08:15:15;98149.22;;;10.72;100.00
70815;BME280;58428;49.478;10.986;2023-02-23T08:17:59;98137.50;;;10.80;100.00
70815;BME280;58428;49.478;10.986;2023-02-23T08:20:25;98148.91;;;10.85;100.00
70815;BME280;58428;49.478;10.986;2023-02-23T08:22:56;98146.22;;;10.85;100.00
70815;BME280;58428;49.478;10.986;2023-02-23T08:25:29;98149.06;;;10.89;100.00
70815;BME280;58428;49.478;10.986;2023-02-23T08:28:01;98145.94;;;10.66;100.00
70815;BME280;58428;49.478;10.986;2023-02-23T08:30:33;98149.50;;;10.59;100.00
70815;BME280;58428;49.478;10.986;2023-02-23T08:33:03;98151.81;;;10.68;100.00
70815;BME280;58428;49.478;10.986;2023-02-23T08:35:30;98153.59;;;10.65;100.00
70815;BME280;58428;49.478;10.986;2023-02-23T08:37:59;98154.53;;;10.68;100.00
70815;BME280;58428;49.478;10.986;2023-02-23T08:40:25;98150.13;;;10.76;100.00
70815;BME280;58428;49.478;10.986;2023-02-23T08:42:59;98157.00;;;10.73;100.00
70815;BME280;58428;49.478;10.986;2023-02-23T08:45:29;98150.94;;;10.76;100.00
70815;BME280;58428;49.478;10.986;2023-02-23T08:48:00;98151.59;;;10.73;100.00
70815;BME280;58428;49.478;10.986;2023-02-23T08:50:25;98155.81;;;10.83;100.00
70815;BME280;58428;49.478;10.986;2023-02-23T08:52:54;98156.84;;;10.90;100.00
70815;BME280;58428;49.478;10.986;2023-02-23T08:55:27;98150.75;;;10.93;100.00
70815;BME280;58428;49.478;10.986;2023-02-23T08:58:00;98154.91;;;10.91;100.00
70815;BME280;58428;49.478;10.986;2023-02-23T09:00:33;98154.72;;;10.96;100.00
70815;BME280;58428;49.478;10.986;2023-02-23T09:03:05;98160.38;;;11.02;100.00
70815;BME280;58428;49.478;10.986;2023-02-23T09:05:47;98151.13;;;11.03;100.00
70815;BME280;58428;49.478;10.986;2023-02-23T09:08:34;98156.44;;;11.12;100.00
70815;BME280;58428;49.478;10.986;2023-02-23T09:11:03;98158.59;;;11.18;100.00
70815;BME280;58428;49.478;10.986;2023-02-23T09:13:37;98158.81;;;11.13;100.00
70815;BME280;58428;49.478;10.986;2023-02-23T09:16:16;98157.97;;;11.01;100.00
70815;BME280;58428;49.478;10.986;2023-02-23T09:18:54;98160.34;;;10.91;100.00
70815;BME280;58428;49.478;10.986;2023-02-23T09:21:26;98160.50;;;10.74;100.00
70815;BME280;58428;49.478;10.986;2023-02-23T09:23:59;98161.94;;;10.71;100.00
70815;BME280;58428;49.478;10.986;2023-02-23T09:26:43;98164.66;;;10.71;100.00
70815;BME280;58428;49.478;10.986;2023-02-23T09:29:11;98162.00;;;10.83;100.00
70815;BME280;58428;49.478;10.986;2023-02-23T09:31:40;98167.34;;;10.92;100.00
70815;BME280;58428;49.478;10.986;2023-02-23T09:34:07;98160.13;;;10.96;100.00
70815;BME280;58428;49.478;10.986;2023-02-23T09:36:45;98171.03;;;10.87;100.00
70815;BME280;58428;49.478;10.986;2023-02-23T09:39:12;98169.88;;;10.76;100.00
70815;BME280;58428;49.478;10.986;2023-02-23T09:42:19;98160.88;;;10.84;100.00
70815;BME280;58428;49.478;10.986;2023-02-23T09:50:57;98170.91;;;11.16;100.00
70815;BME280;58428;49.478;10.986;2023-02-23T09:53:44;98166.53;;;11.35;100.00
70815;BME280;58428;49.478;10.986;2023-02-23T09:56:37;98158.91;;;11.49;100.00
70815;BME280;58428;49.478;10.986;2023-02-23T09:59:19;98162.31;;;11.70;100.00
70815;BME280;58428;49.478;10.986;2023-02-23T10:04:42;98160.59;;;12.01;100.00
70815;BME280;58428;49.478;10.986;2023-02-23T10:07:42;98160.00;;;12.07;100.00
70815;BME280;58428;49.478;10.986;2023-02-23T10:13:14;98161.03;;;12.14;100.00
70815;BME280;58428;49.478;10.986;2023-02-23T10:16:14;98158.19;;;12.11;100.00
70815;BME280;58428;49.478;10.986;2023-02-23T10:19:11;98158.47;;;11.94;100.00
70815;BME280;58428;49.478;10.986;2023-02-23T10:21:41;98161.06;;;11.79;100.00
70815;BME280;58428;49.478;10.986;2023-02-23T10:27:08;98169.03;;;11.40;100.00
70815;BME280;58428;49.478;10.986;2023-02-23T10:32:44;98169.66;;;11.69;100.00
70815;BME280;58428;49.478;10.986;2023-02-23T10:35:21;98170.56;;;11.73;100.00
70815;BME280;58428;49.478;10.986;2023-02-23T10:38:01;98179.56;;;11.53;100.00
70815;BME280;58428;49.478;10.986;2023-02-23T10:40:29;98166.91;;;11.57;100.00
70815;BME280;58428;49.478;10.986;2023-02-23T10:43:02;98171.22;;;11.82;100.00
70815;BME280;58428;49.478;10.986;2023-02-23T10:45:47;98168.31;;;11.75;100.00
70815;BME280;58428;49.478;10.986;2023-02-23T10:48:33;98166.38;;;11.64;100.00
70815;BME280;58428;49.478;10.986;2023-02-23T10:51:30;98171.09;;;11.55;100.00
70815;BME280;58428;49.478;10.986;2023-02-23T10:54:43;98169.88;;;11.52;100.00
70815;BME280;58428;49.478;10.986;2023-02-23T10:56:46;98175.25;;;11.40;100.00
70815;BME280;58428;49.478;10.986;2023-02-23T10:59:23;98174.91;;;11.42;100.00
70815;BME280;58428;49.478;10.986;2023-02-23T11:02:14;98173.75;;;11.43;100.00
70815;BME280;58428;49.478;10.986;2023-02-23T11:04:51;98166.81;;;11.54;100.00
70815;BME280;58428;49.478;10.986;2023-02-23T11:07:34;98173.16;;;11.58;100.00
70815;BME280;58428;49.478;10.986;2023-02-23T11:13:27;98162.19;;;12.13;100.00
70815;BME280;58428;49.478;10.986;2023-02-23T11:16:09;98168.34;;;12.26;100.00
70815;BME280;58428;49.478;10.986;2023-02-23T11:19:20;98159.06;;;12.39;100.00
70815;BME280;58428;49.478;10.986;2023-02-23T11:21:58;98156.03;;;12.28;100.00
70815;BME280;58428;49.478;10.986;2023-02-23T11:24:27;98164.19;;;12.16;100.00
70815;BME280;58428;49.478;10.986;2023-02-23T11:27:02;98158.34;;;12.03;100.00
70815;BME280;58428;49.478;10.986;2023-02-23T11:29:38;98146.78;;;12.06;100.00
70815;BME280;58428;49.478;10.986;2023-02-23T11:32:38;98155.38;;;12.08;100.00
70815;BME280;58428;49.478;10.986;2023-02-23T11:35:32;98147.81;;;12.01;100.00
70815;BME280;58428;49.478;10.986;2023-02-23T11:38:21;98151.78;;;12.15;100.00
70815;BME280;58428;49.478;10.986;2023-02-23T11:41:18;98142.69;;;12.35;100.00
70815;BME280;58428;49.478;10.986;2023-02-23T11:44:19;98144.47;;;11.92;100.00
70815;BME280;58428;49.478;10.986;2023-02-23T11:46:49;98139.22;;;12.11;100.00
70815;BME280;58428;49.478;10.986;2023-02-23T11:49:35;98153.13;;;11.98;100.00
70815;BME280;58428;49.478;10.986;2023-02-23T11:52:21;98143.19;;;11.90;100.00
70815;BME280;58428;49.478;10.986;2023-02-23T11:55:01;98139.56;;;12.10;100.00
70815;BME280;58428;49.478;10.986;2023-02-23T11:57:37;98134.91;;;12.22;100.00
70815;BME280;58428;49.478;10.986;2023-02-23T12:00:36;98138.66;;;12.17;100.00
70815;BME280;58428;49.478;10.986;2023-02-23T12:03:16;98142.28;;;12.21;100.00
70815;BME280;58428;49.478;10.986;2023-02-23T12:05:55;98138.72;;;12.33;100.00
70815;BME280;58428;49.478;10.986;2023-02-23T12:08:36;98134.66;;;12.39;100.00
70815;BME280;58428;49.478;10.986;2023-02-23T12:11:27;98140.38;;;12.49;100.00
70815;BME280;58428;49.478;10.986;2023-02-23T12:17:33;98130.31;;;12.77;100.00
70815;BME280;58428;49.478;10.986;2023-02-23T12:20:13;98128.66;;;12.99;100.00
70815;BME280;58428;49.478;10.986;2023-02-23T12:22:47;98132.69;;;13.05;100.00
70815;BME280;58428;49.478;10.986;2023-02-23T12:28:36;98122.94;;;13.04;100.00
70815;BME280;58428;49.478;10.986;2023-02-23T12:33:52;98125.66;;;13.04;100.00
70815;BME280;58428;49.478;10.986;2023-02-23T12:36:38;98118.03;;;12.94;100.00
70815;BME280;58428;49.478;10.986;2023-02-23T12:39:37;98115.38;;;12.83;100.00
70815;BME280;58428;49.478;10.986;2023-02-23T12:44:48;98111.13;;;13.12;100.00
70815;BME280;58428;49.478;10.986;2023-02-23T12:51:03;98109.66;;;13.15;100.00
70815;BME280;58428;49.478;10.986;2023-02-23T12:56:32;98106.66;;;13.65;100.00
70815;BME280;58428;49.478;10.986;2023-02-23T13:05:43;98092.25;;;13.96;100.00
70815;BME280;58428;49.478;10.986;2023-02-23T13:14:20;98083.78;;;13.66;100.00
70815;BME280;58428;49.478;10.986;2023-02-23T13:17:25;98080.03;;;13.56;100.00
70815;BME280;58428;49.478;10.986;2023-02-23T13:26:19;98082.56;;;13.98;100.00
70815;BME280;58428;49.478;10.986;2023-02-23T13:31:37;98076.09;;;14.02;100.00
70815;BME280;58428;49.478;10.986;2023-02-23T13:34:23;98070.88;;;14.13;100.00
70815;BME280;58428;49.478;10.986;2023-02-23T13:36:52;98075.38;;;14.24;100.00
70815;BME280;58428;49.478;10.986;2023-02-23T13:45:55;98066.78;;;14.22;100.00
70815;BME280;58428;49.478;10.986;2023-02-23T13:51:39;98068.00;;;14.06;100.00
70815;BME280;58428;49.478;10.986;2023-02-23T13:54:50;98069.22;;;13.74;100.00
70815;BME280;58428;49.478;10.986;2023-02-23T14:00:39;98069.19;;;13.90;100.00
70815;BME280;58428;49.478;10.986;2023-02-23T14:03:23;98066.09;;;13.91;100.00
70815;BME280;58428;49.478;10.986;2023-02-23T14:09:22;98072.09;;;13.66;100.00
70815;BME280;58428;49.478;10.986;2023-02-23T14:12:10;98067.66;;;13.43;100.00
70815;BME280;58428;49.478;10.986;2023-02-23T14:18:02;98069.34;;;13.01;100.00
70815;BME280;58428;49.478;10.986;2023-02-23T14:23:35;98063.28;;;12.92;100.00
70815;BME280;58428;49.478;10.986;2023-02-23T14:29:20;98065.88;;;12.74;100.00
70815;BME280;58428;49.478;10.986;2023-02-23T14:31:58;98058.75;;;12.69;100.00
70815;BME280;58428;49.478;10.986;2023-02-23T14:34:49;98059.28;;;12.75;100.00
70815;BME280;58428;49.478;10.986;2023-02-23T14:37:34;98060.50;;;12.89;100.00
70815;BME280;58428;49.478;10.986;2023-02-23T14:46:20;98054.59;;;12.60;100.00
70815;BME280;58428;49.478;10.986;2023-02-23T14:49:05;98059.56;;;12.70;100.00
70815;BME280;58428;49.478;10.986;2023-02-23T14:51:44;98058.25;;;12.79;100.00
70815;BME280;58428;49.478;10.986;2023-02-23T14:56:56;98052.34;;;13.04;100.00
70815;BME280;58428;49.478;10.986;2023-02-23T14:59:26;98052.97;;;13.13;100.00
70815;BME280;58428;49.478;10.986;2023-02-23T15:01:58;98055.78;;;13.17;100.00
70815;BME280;58428;49.478;10.986;2023-02-23T15:04:27;98051.03;;;13.14;100.00
70815;BME280;58428;49.478;10.986;2023-02-23T15:06:57;98050.50;;;13.08;100.00
70815;BME280;58428;49.478;10.986;2023-02-23T15:09:32;98053.03;;;13.01;100.00
70815;BME280;58428;49.478;10.986;2023-02-23T15:11:59;98045.88;;;12.93;100.00
70815;BME280;58428;49.478;10.986;2023-02-23T15:14:29;98055.56;;;12.94;100.00
70815;BME280;58428;49.478;10.986;2023-02-23T15:16:57;98046.19;;;12.92;100.00
70815;BME280;58428;49.478;10.986;2023-02-23T15:19:24;98059.38;;;12.78;100.00
70815;BME280;58428;49.478;10.986;2023-02-23T15:21:54;98064.56;;;12.56;100.00
70815;BME280;58428;49.478;10.986;2023-02-23T15:24:23;98061.34;;;12.23;100.00
70815;BME280;58428;49.478;10.986;2023-02-23T15:26:52;98065.78;;;12.16;100.00
70815;BME280;58428;49.478;10.986;2023-02-23T15:29:22;98074.53;;;12.25;100.00
70815;BME280;58428;49.478;10.986;2023-02-23T15:31:50;98058.03;;;12.30;100.00
70815;BME280;58428;49.478;10.986;2023-02-23T15:34:21;98066.63;;;12.32;100.00
70815;BME280;58428;49.478;10.986;2023-02-23T15:37:00;98068.94;;;12.18;100.00
70815;BME280;58428;49.478;10.986;2023-02-23T15:39:34;98068.59;;;12.19;100.00
70815;BME280;58428;49.478;10.986;2023-02-23T15:42:02;98064.72;;;12.20;100.00
70815;BME280;58428;49.478;10.986;2023-02-23T15:44:29;98062.41;;;12.34;100.00
70815;BME280;58428;49.478;10.986;2023-02-23T15:47:02;98063.19;;;12.35;100.00
70815;BME280;58428;49.478;10.986;2023-02-23T15:49:30;98060.91;;;12.21;100.00
70815;BME280;58428;49.478;10.986;2023-02-23T15:52:07;98066.34;;;12.10;100.00
70815;BME280;58428;49.478;10.986;2023-02-23T15:54:48;98068.59;;;12.08;100.00
70815;BME280;58428;49.478;10.986;2023-02-23T15:57:25;98062.28;;;12.15;100.00
70815;BME280;58428;49.478;10.986;2023-02-23T15:59:57;98066.56;;;12.16;100.00
70815;BME280;58428;49.478;10.986;2023-02-23T16:02:35;98063.19;;;12.08;100.00